Bergamot Ace — ZGAS5 — position and weather

sailwx.info

Track history (hours):
 
Tides and Currents Weather Stations Pressure Air Temp Water Temp Dewpoint Dewpoint Depression Visibility Wind Speed Wind Dir Waves Ship Positions

Bergamot Ace

Last reported at 2016-May-19 23:29 UTC. Time now 2016-May-28 08:03 UTC.
Position N 01°16' E 104°10'.
Warning: this ship's position is 8 days out of date.

Length 186 m; draft 7.7 m.

Type: Cargo ship. MMSI: 319740000.

Date/timePositionNaut miles runAvg speedWind from/ knotsBaromVisibWave heightAir tempDewpointWater temp
2016-May-19 23:29N 01°16' E 104°10'1111.7
2016-May-19 22:33N 01°14' E 103°59'6 6.3
2016-May-19 21:33N 01°15' E 103°53'0 0.0
2016-May-19 20:33N 01°15' E 103°53'0 0.1
2016-May-19 19:30N 01°15' E 103°53'0 0.0
2016-May-19 18:30N 01°15' E 103°53'0 0.0
2016-May-19 17:30N 01°15' E 103°53'0 0.0
2016-May-19 16:33N 01°15' E 103°53'0 0.1
2016-May-19 15:24N 01°15' E 103°53'0 0.0
2016-May-19 14:33N 01°15' E 103°53'0 0.0
2016-May-19 13:33N 01°15' E 103°53'2 2.3
2016-May-19 12:33N 01°13' E 103°52'8 7.9
2016-May-19 11:33N 01°17' E 103°45'0 0.4
2016-May-19 10:33N 01°17' E 103°45'0 0.0
2016-May-19 09:33N 01°17' E 103°45'0 0.0
2016-May-19 08:33N 01°17' E 103°45'0 0.0
2016-May-19 07:33N 01°17' E 103°45'0 0.0
2016-May-19 06:33N 01°17' E 103°45'0 0.0
2016-May-19 05:33N 01°17' E 103°45'5 4.8
2016-May-19 04:33N 01°13' E 103°48'8 8.1
2016-May-19 03:34N 01°14' E 103°56'8 8.1
2016-May-19 02:33N 01°16' E 104°04'  
Track history (hours):
 
Tides and Currents Weather Stations Pressure Air Temp Water Temp Dewpoint Dewpoint Depression Visibility Wind Speed Wind Dir Waves Ship Positions

Bergamot Ace

Last reported at 2016-May-19 23:29 UTC. Time now 2016-May-28 08:03 UTC.
Position N 01°16' E 104°10'.
Warning: this ship's position is 8 days out of date.

Length 186 m; draft 7.7 m.

Type: Cargo ship. MMSI: 319740000.

Date/timePositionNaut miles runAvg speedWind from/ knotsBaromVisibWave heightAir tempDewpointWater temp
2016-May-19 23:29N 01°16' E 104°10'1111.7
2016-May-19 22:33N 01°14' E 103°59'6 6.3
2016-May-19 21:33N 01°15' E 103°53'0 0.0
2016-May-19 20:33N 01°15' E 103°53'0 0.1
2016-May-19 19:30N 01°15' E 103°53'0 0.0
2016-May-19 18:30N 01°15' E 103°53'0 0.0
2016-May-19 17:30N 01°15' E 103°53'0 0.0
2016-May-19 16:33N 01°15' E 103°53'0 0.1
2016-May-19 15:24N 01°15' E 103°53'0 0.0
2016-May-19 14:33N 01°15' E 103°53'0 0.0
2016-May-19 13:33N 01°15' E 103°53'2 2.3
2016-May-19 12:33N 01°13' E 103°52'8 7.9
2016-May-19 11:33N 01°17' E 103°45'0 0.4
2016-May-19 10:33N 01°17' E 103°45'0 0.0
2016-May-19 09:33N 01°17' E 103°45'0 0.0
2016-May-19 08:33N 01°17' E 103°45'0 0.0
2016-May-19 07:33N 01°17' E 103°45'0 0.0
2016-May-19 06:33N 01°17' E 103°45'0 0.0
2016-May-19 05:33N 01°17' E 103°45'5 4.8
2016-May-19 04:33N 01°13' E 103°48'8 8.1
2016-May-19 03:34N 01°14' E 103°56'8 8.1
2016-May-19 02:33N 01°16' E 104°04'  

Dump ship's entire track history